sensor_id;sensor_type;location;lat;lon;timestamp;pressure;altitude;pressure_sealevel;temperature;humidity
49515;BME280;35415;47.870;16.058;2023-02-22T00:01:41;97344.69;;;9.83;72.35
49515;BME280;35415;47.870;16.058;2023-02-22T00:04:16;97332.84;;;9.84;72.37
49515;BME280;35415;47.870;16.058;2023-02-22T00:06:46;97367.59;;;10.01;71.07
49515;BME280;35415;47.870;16.058;2023-02-22T00:09:15;97361.44;;;10.00;71.35
49515;BME280;35415;47.870;16.058;2023-02-22T00:11:49;97367.13;;;10.09;68.32
49515;BME280;35415;47.870;16.058;2023-02-22T00:14:17;97346.84;;;9.86;72.38
49515;BME280;35415;47.870;16.058;2023-02-22T00:16:46;97325.78;;;9.68;71.55
49515;BME280;35415;47.870;16.058;2023-02-22T00:19:15;97363.81;;;9.91;72.21
49515;BME280;35415;47.870;16.058;2023-02-22T00:21:42;97369.41;;;9.90;73.66
49515;BME280;35415;47.870;16.058;2023-02-22T00:24:12;97350.84;;;9.78;71.81
49515;BME280;35415;47.870;16.058;2023-02-22T00:26:51;97379.34;;;9.84;71.53
49515;BME280;35415;47.870;16.058;2023-02-22T00:29:20;97377.72;;;9.83;71.64
49515;BME280;35415;47.870;16.058;2023-02-22T00:31:48;97373.13;;;9.79;72.32
49515;BME280;35415;47.870;16.058;2023-02-22T00:34:17;97367.75;;;9.79;71.74
49515;BME280;35415;47.870;16.058;2023-02-22T00:36:45;97373.34;;;9.72;71.99
49515;BME280;35415;47.870;16.058;2023-02-22T00:39:13;97360.94;;;9.61;73.90
49515;BME280;35415;47.870;16.058;2023-02-22T00:41:41;97349.03;;;9.47;73.22
49515;BME280;35415;47.870;16.058;2023-02-22T00:44:10;97345.81;;;9.50;72.88
49515;BME280;35415;47.870;16.058;2023-02-22T00:46:38;97296.19;;;9.15;74.58
49515;BME280;35415;47.870;16.058;2023-02-22T00:49:05;97365.19;;;9.57;74.32
49515;BME280;35415;47.870;16.058;2023-02-22T00:51:33;97372.44;;;9.56;76.18
49515;BME280;35415;47.870;16.058;2023-02-22T00:54:00;97328.69;;;9.19;75.39
49515;BME280;35415;47.870;16.058;2023-02-22T00:56:28;97375.09;;;9.51;75.22
49515;BME280;35415;47.870;16.058;2023-02-22T00:58:55;97353.44;;;9.26;74.34
49515;BME280;35415;47.870;16.058;2023-02-22T01:01:24;97311.66;;;9.03;74.20
49515;BME280;35415;47.870;16.058;2023-02-22T01:03:52;97292.28;;;8.96;74.03
49515;BME280;35415;47.870;16.058;2023-02-22T01:06:21;97308.94;;;8.98;75.95
49515;BME280;35415;47.870;16.058;2023-02-22T01:08:48;97331.22;;;9.03;76.12
49515;BME280;35415;47.870;16.058;2023-02-22T01:11:16;97366.88;;;9.31;76.85
49515;BME280;35415;47.870;16.058;2023-02-22T01:13:44;97347.97;;;9.16;75.92
49515;BME280;35415;47.870;16.058;2023-02-22T01:16:12;97371.41;;;9.25;76.24
49515;BME280;35415;47.870;16.058;2023-02-22T01:18:41;97310.88;;;8.76;76.99
49515;BME280;35415;47.870;16.058;2023-02-22T01:21:10;97371.31;;;9.15;76.31
49515;BME280;35415;47.870;16.058;2023-02-22T01:23:38;97373.97;;;9.10;77.33
49515;BME280;35415;47.870;16.058;2023-02-22T01:26:08;97348.59;;;8.91;78.36
49515;BME280;35415;47.870;16.058;2023-02-22T01:28:38;97304.06;;;8.63;76.80
49515;BME280;35415;47.870;16.058;2023-02-22T01:31:05;97371.16;;;8.95;76.58
49515;BME280;35415;47.870;16.058;2023-02-22T01:33:32;97363.25;;;8.83;76.47
49515;BME280;35415;47.870;16.058;2023-02-22T01:36:01;97366.22;;;8.87;77.39
49515;BME280;35415;47.870;16.058;2023-02-22T01:38:36;97285.91;;;8.43;79.40
49515;BME280;35415;47.870;16.058;2023-02-22T01:41:06;97375.63;;;8.89;78.23
49515;BME280;35415;47.870;16.058;2023-02-22T01:43:34;97354.94;;;8.85;79.44
49515;BME280;35415;47.870;16.058;2023-02-22T01:46:02;97334.09;;;8.65;80.38
49515;BME280;35415;47.870;16.058;2023-02-22T01:48:37;97369.41;;;8.84;78.62
49515;BME280;35415;47.870;16.058;2023-02-22T01:51:14;97311.69;;;8.49;78.70
49515;BME280;35415;47.870;16.058;2023-02-22T01:53:46;97345.75;;;8.76;80.60
49515;BME280;35415;47.870;16.058;2023-02-22T01:56:15;97354.44;;;8.88;75.93
49515;BME280;35415;47.870;16.058;2023-02-22T01:58:45;97363.75;;;8.80;78.79
49515;BME280;35415;47.870;16.058;2023-02-22T02:01:16;97343.31;;;8.74;80.21
49515;BME280;35415;47.870;16.058;2023-02-22T02:03:44;97339.84;;;8.73;81.55
49515;BME280;35415;47.870;16.058;2023-02-22T02:06:15;97318.66;;;8.50;81.56
49515;BME280;35415;47.870;16.058;2023-02-22T02:08:51;97305.22;;;8.45;81.05
49515;BME280;35415;47.870;16.058;2023-02-22T02:11:23;97334.41;;;8.68;82.00
49515;BME280;35415;47.870;16.058;2023-02-22T02:13:54;97256.75;;;8.25;82.22
49515;BME280;35415;47.870;16.058;2023-02-22T02:16:24;97259.97;;;8.27;81.83
49515;BME280;35415;47.870;16.058;2023-02-22T02:18:55;97297.03;;;8.57;81.62
49515;BME280;35415;47.870;16.058;2023-02-22T02:21:40;97331.28;;;8.77;81.48
49515;BME280;35415;47.870;16.058;2023-02-22T02:27:23;97244.41;;;8.24;80.76
49515;BME280;35415;47.870;16.058;2023-02-22T02:30:20;97240.69;;;8.25;79.74
49515;BME280;35415;47.870;16.058;2023-02-22T02:33:02;97311.59;;;8.66;80.45
49515;BME280;35415;47.870;16.058;2023-02-22T02:35:44;97325.38;;;8.74;79.93
49515;BME280;35415;47.870;16.058;2023-02-22T02:38:27;97309.69;;;8.61;79.75
49515;BME280;35415;47.870;16.058;2023-02-22T02:41:04;97342.75;;;8.72;80.42
49515;BME280;35415;47.870;16.058;2023-02-22T02:43:41;97301.88;;;8.60;79.82
49515;BME280;35415;47.870;16.058;2023-02-22T02:46:14;97330.94;;;8.73;79.29
49515;BME280;35415;47.870;16.058;2023-02-22T02:48:50;97258.13;;;8.27;79.60
49515;BME280;35415;47.870;16.058;2023-02-22T02:51:23;97320.47;;;8.71;79.91
49515;BME280;35415;47.870;16.058;2023-02-22T02:53:53;97275.69;;;8.40;79.75
49515;BME280;35415;47.870;16.058;2023-02-22T02:56:22;97329.34;;;8.72;80.26
49515;BME280;35415;47.870;16.058;2023-02-22T02:58:52;97318.06;;;8.70;81.51
49515;BME280;35415;47.870;16.058;2023-02-22T03:01:36;97303.50;;;8.61;79.92
49515;BME280;35415;47.870;16.058;2023-02-22T03:04:16;97305.63;;;8.59;80.99
49515;BME280;35415;47.870;16.058;2023-02-22T03:07:02;97317.00;;;8.71;80.69
49515;BME280;35415;47.870;16.058;2023-02-22T03:09:43;97290.00;;;8.51;80.46
49515;BME280;35415;47.870;16.058;2023-02-22T03:12:22;97258.38;;;8.26;80.89
49515;BME280;35415;47.870;16.058;2023-02-22T03:15:05;97247.66;;;8.26;81.37
49515;BME280;35415;47.870;16.058;2023-02-22T03:17:41;97273.81;;;8.40;80.60
49515;BME280;35415;47.870;16.058;2023-02-22T03:20:23;97318.31;;;8.68;81.31
49515;BME280;35415;47.870;16.058;2023-02-22T03:22:59;97240.31;;;8.16;80.93
49515;BME280;35415;47.870;16.058;2023-02-22T03:25:32;97316.69;;;8.67;81.16
49515;BME280;35415;47.870;16.058;2023-02-22T03:28:08;97301.00;;;8.54;82.06
49515;BME280;35415;47.870;16.058;2023-02-22T03:30:41;97259.34;;;8.20;81.20
49515;BME280;35415;47.870;16.058;2023-02-22T03:33:18;97296.97;;;8.52;81.21
49515;BME280;35415;47.870;16.058;2023-02-22T03:35:53;97321.75;;;8.64;81.90
49515;BME280;35415;47.870;16.058;2023-02-22T03:38:29;97253.75;;;8.21;81.32
49515;BME280;35415;47.870;16.058;2023-02-22T03:41:00;97261.84;;;8.26;81.46
49515;BME280;35415;47.870;16.058;2023-02-22T03:43:33;97329.28;;;8.67;80.91
49515;BME280;35415;47.870;16.058;2023-02-22T03:46:04;97310.66;;;8.55;83.04
49515;BME280;35415;47.870;16.058;2023-02-22T03:48:38;97329.28;;;8.67;81.61
49515;BME280;35415;47.870;16.058;2023-02-22T03:51:12;97272.03;;;8.24;81.90
49515;BME280;35415;47.870;16.058;2023-02-22T03:53:42;97339.69;;;8.58;83.21
49515;BME280;35415;47.870;16.058;2023-02-22T03:56:15;97261.47;;;8.18;81.82
49515;BME280;35415;47.870;16.058;2023-02-22T03:58:48;97320.09;;;8.58;81.90
49515;BME280;35415;47.870;16.058;2023-02-22T04:01:17;97295.94;;;8.31;83.14
49515;BME280;35415;47.870;16.058;2023-02-22T04:03:48;97333.72;;;8.56;83.59
49515;BME280;35415;47.870;16.058;2023-02-22T04:06:18;97344.06;;;8.69;82.73
49515;BME280;35415;47.870;16.058;2023-02-22T04:08:48;97325.47;;;8.58;83.27
49515;BME280;35415;47.870;16.058;2023-02-22T04:11:18;97294.31;;;8.30;84.06
49515;BME280;35415;47.870;16.058;2023-02-22T04:13:48;97344.88;;;8.70;82.98
49515;BME280;35415;47.870;16.058;2023-02-22T04:16:17;97327.34;;;8.57;82.96
49515;BME280;35415;47.870;16.058;2023-02-22T04:18:44;97285.72;;;8.28;82.82
49515;BME280;35415;47.870;16.058;2023-02-22T04:21:12;97349.13;;;8.66;82.79
49515;BME280;35415;47.870;16.058;2023-02-22T04:23:42;97340.53;;;8.64;83.65
49515;BME280;35415;47.870;16.058;2023-02-22T04:26:10;97351.81;;;8.66;84.69
49515;BME280;35415;47.870;16.058;2023-02-22T04:28:37;97328.84;;;8.48;84.58
49515;BME280;35415;47.870;16.058;2023-02-22T04:31:05;97338.63;;;8.59;85.12
49515;BME280;35415;47.870;16.058;2023-02-22T04:33:38;97343.22;;;8.64;85.14
49515;BME280;35415;47.870;16.058;2023-02-22T04:36:06;97341.34;;;8.64;84.37
49515;BME280;35415;47.870;16.058;2023-02-22T04:38:33;97309.97;;;8.38;83.73
49515;BME280;35415;47.870;16.058;2023-02-22T04:41:06;97314.25;;;8.39;84.07
49515;BME280;35415;47.870;16.058;2023-02-22T04:43:34;97341.91;;;8.66;83.83
49515;BME280;35415;47.870;16.058;2023-02-22T04:46:01;97337.34;;;8.67;83.52
49515;BME280;35415;47.870;16.058;2023-02-22T04:48:34;97334.09;;;8.65;84.09
49515;BME280;35415;47.870;16.058;2023-02-22T04:51:02;97309.88;;;8.55;84.50
49515;BME280;35415;47.870;16.058;2023-02-22T04:53:30;97331.13;;;8.61;85.68
49515;BME280;35415;47.870;16.058;2023-02-22T04:55:57;97328.38;;;8.56;85.58
49515;BME280;35415;47.870;16.058;2023-02-22T04:58:26;97313.69;;;8.59;84.91
49515;BME280;35415;47.870;16.058;2023-02-22T05:00:54;97337.63;;;8.70;85.54
49515;BME280;35415;47.870;16.058;2023-02-22T05:03:26;97326.09;;;8.70;85.42
49515;BME280;35415;47.870;16.058;2023-02-22T05:05:53;97331.72;;;8.68;86.07
49515;BME280;35415;47.870;16.058;2023-02-22T05:08:21;97308.47;;;8.47;86.66
49515;BME280;35415;47.870;16.058;2023-02-22T05:10:48;97255.88;;;8.19;86.37
49515;BME280;35415;47.870;16.058;2023-02-22T05:13:15;97330.88;;;8.63;86.54
49515;BME280;35415;47.870;16.058;2023-02-22T05:15:49;97329.91;;;8.74;84.03
49515;BME280;35415;47.870;16.058;2023-02-22T05:18:16;97337.91;;;8.69;85.32
49515;BME280;35415;47.870;16.058;2023-02-22T05:20:44;97316.03;;;8.55;85.11
49515;BME280;35415;47.870;16.058;2023-02-22T05:23:13;97288.34;;;8.44;85.49
49515;BME280;35415;47.870;16.058;2023-02-22T05:25:42;97333.59;;;8.68;87.32
49515;BME280;35415;47.870;16.058;2023-02-22T05:28:12;97248.09;;;8.18;87.06
49515;BME280;35415;47.870;16.058;2023-02-22T05:30:43;97327.41;;;8.67;87.55
49515;BME280;35415;47.870;16.058;2023-02-22T05:33:11;97308.00;;;8.55;87.47
49515;BME280;35415;47.870;16.058;2023-02-22T05:35:39;97267.13;;;8.21;85.83
49515;BME280;35415;47.870;16.058;2023-02-22T05:38:12;97274.44;;;8.26;85.92
49515;BME280;35415;47.870;16.058;2023-02-22T05:40:40;97344.88;;;8.70;85.54
49515;BME280;35415;47.870;16.058;2023-02-22T05:43:09;97323.91;;;8.62;85.35
49515;BME280;35415;47.870;16.058;2023-02-22T05:45:36;97311.44;;;8.51;85.64
49515;BME280;35415;47.870;16.058;2023-02-22T05:48:04;97325.22;;;8.59;85.18
49515;BME280;35415;47.870;16.058;2023-02-22T05:50:33;97325.56;;;8.68;86.38
49515;BME280;35415;47.870;16.058;2023-02-22T05:53:01;97291.19;;;8.38;85.36
49515;BME280;35415;47.870;16.058;2023-02-22T05:55:30;97346.00;;;8.74;85.16
49515;BME280;35415;47.870;16.058;2023-02-22T05:57:57;97340.38;;;8.76;86.50
49515;BME280;35415;47.870;16.058;2023-02-22T06:00:30;97308.81;;;8.56;87.13
49515;BME280;35415;47.870;16.058;2023-02-22T06:03:00;97314.50;;;8.59;85.20
49515;BME280;35415;47.870;16.058;2023-02-22T06:05:27;97265.34;;;8.27;85.82
49515;BME280;35415;47.870;16.058;2023-02-22T06:07:56;97343.88;;;8.76;85.05
49515;BME280;35415;47.870;16.058;2023-02-22T06:10:24;97359.41;;;8.74;85.18
49515;BME280;35415;47.870;16.058;2023-02-22T06:12:52;97307.91;;;8.45;84.96
49515;BME280;35415;47.870;16.058;2023-02-22T06:15:22;97318.78;;;8.60;86.77
49515;BME280;35415;47.870;16.058;2023-02-22T06:17:50;97306.06;;;8.51;85.66
49515;BME280;35415;47.870;16.058;2023-02-22T06:20:21;97344.44;;;8.78;85.17
49515;BME280;35415;47.870;16.058;2023-02-22T06:22:49;97351.97;;;8.81;85.16
49515;BME280;35415;47.870;16.058;2023-02-22T06:25:23;97305.56;;;8.54;85.33
49515;BME280;35415;47.870;16.058;2023-02-22T06:27:51;97355.19;;;8.83;85.25
49515;BME280;35415;47.870;16.058;2023-02-22T06:30:20;97351.16;;;8.81;85.49
49515;BME280;35415;47.870;16.058;2023-02-22T06:32:47;97337.59;;;8.65;84.83
49515;BME280;35415;47.870;16.058;2023-02-22T06:35:15;97327.41;;;8.67;85.25
49515;BME280;35415;47.870;16.058;2023-02-22T06:37:43;97362.47;;;8.88;84.63
49515;BME280;35415;47.870;16.058;2023-02-22T06:40:11;97360.31;;;8.85;85.34
49515;BME280;35415;47.870;16.058;2023-02-22T06:42:40;97334.16;;;8.70;85.29
49515;BME280;35415;47.870;16.058;2023-02-22T06:45:08;97361.19;;;8.90;85.33
49515;BME280;35415;47.870;16.058;2023-02-22T06:47:37;97367.09;;;8.92;85.43
49515;BME280;35415;47.870;16.058;2023-02-22T06:50:07;97372.22;;;8.94;84.90
49515;BME280;35415;47.870;16.058;2023-02-22T06:52:41;97374.38;;;8.97;85.35
49515;BME280;35415;47.870;16.058;2023-02-22T06:55:24;97355.56;;;8.92;86.07
49515;BME280;35415;47.870;16.058;2023-02-22T06:57:52;97368.50;;;9.00;85.68
49515;BME280;35415;47.870;16.058;2023-02-22T07:00:22;97366.38;;;9.02;86.22
49515;BME280;35415;47.870;16.058;2023-02-22T07:02:51;97363.13;;;9.00;85.99
49515;BME280;35415;47.870;16.058;2023-02-22T07:05:20;97372.03;;;9.05;86.16
49515;BME280;35415;47.870;16.058;2023-02-22T07:07:50;97371.81;;;9.07;85.94
49515;BME280;35415;47.870;16.058;2023-02-22T07:10:21;97372.91;;;9.11;86.69
49515;BME280;35415;47.870;16.058;2023-02-22T07:12:48;97370.78;;;9.13;85.69
49515;BME280;35415;47.870;16.058;2023-02-22T07:15:19;97364.84;;;9.11;85.62
49515;BME280;35415;47.870;16.058;2023-02-22T07:17:51;97376.16;;;9.18;86.63
49515;BME280;35415;47.870;16.058;2023-02-22T07:20:19;97376.22;;;9.23;87.34
49515;BME280;35415;47.870;16.058;2023-02-22T07:22:47;97348.50;;;9.13;87.25
49515;BME280;35415;47.870;16.058;2023-02-22T07:25:14;97373.59;;;9.28;86.61
49515;BME280;35415;47.870;16.058;2023-02-22T07:27:42;97370.38;;;9.31;86.31
49515;BME280;35415;47.870;16.058;2023-02-22T07:30:15;97367.72;;;9.37;86.54
49515;BME280;35415;47.870;16.058;2023-02-22T07:32:48;97296.28;;;8.93;88.19
49515;BME280;35415;47.870;16.058;2023-02-22T07:35:19;97285.03;;;8.96;87.24
49515;BME280;35415;47.870;16.058;2023-02-22T07:37:48;97272.69;;;8.95;86.97
49515;BME280;35415;47.870;16.058;2023-02-22T07:40:17;97351.69;;;9.42;87.28
49515;BME280;35415;47.870;16.058;2023-02-22T07:42:58;97365.50;;;9.60;86.72
49515;BME280;35415;47.870;16.058;2023-02-22T07:45:27;97364.72;;;9.65;87.58
49515;BME280;35415;47.870;16.058;2023-02-22T07:48:02;97341.00;;;9.57;88.03
49515;BME280;35415;47.870;16.058;2023-02-22T07:50:33;97290.66;;;9.32;87.75
49515;BME280;35415;47.870;16.058;2023-02-22T07:53:05;97353.81;;;9.82;88.51
49515;BME280;35415;47.870;16.058;2023-02-22T07:55:35;97307.75;;;9.58;88.81
49515;BME280;35415;47.870;16.058;2023-02-22T07:58:08;97318.50;;;9.63;88.98
49515;BME280;35415;47.870;16.058;2023-02-22T08:00:39;97281.91;;;9.52;88.52
49515;BME280;35415;47.870;16.058;2023-02-22T08:03:10;97342.41;;;10.12;85.79
49515;BME280;35415;47.870;16.058;2023-02-22T08:05:41;97343.47;;;10.11;85.73
49515;BME280;35415;47.870;16.058;2023-02-22T08:08:08;97355.91;;;10.22;84.42
49515;BME280;35415;47.870;16.058;2023-02-22T08:10:39;97309.03;;;10.03;83.89
49515;BME280;35415;47.870;16.058;2023-02-22T08:13:08;97340.38;;;10.34;81.41
49515;BME280;35415;47.870;16.058;2023-02-22T08:15:37;97351.13;;;10.39;79.96
49515;BME280;35415;47.870;16.058;2023-02-22T08:18:06;97287.25;;;10.04;78.14
49515;BME280;35415;47.870;16.058;2023-02-22T08:20:39;97270.34;;;10.04;78.04
49515;BME280;35415;47.870;16.058;2023-02-22T08:23:08;97308.09;;;10.34;77.27
49515;BME280;35415;47.870;16.058;2023-02-22T08:25:37;97326.97;;;10.49;76.79
49515;BME280;35415;47.870;16.058;2023-02-22T08:28:07;97304.38;;;10.50;75.66
49515;BME280;35415;47.870;16.058;2023-02-22T08:30:35;97315.72;;;10.68;76.37
49515;BME280;35415;47.870;16.058;2023-02-22T08:33:05;97299.03;;;10.66;76.43
49515;BME280;35415;47.870;16.058;2023-02-22T08:35:33;97282.06;;;10.55;75.35
49515;BME280;35415;47.870;16.058;2023-02-22T08:38:04;97334.03;;;11.01;75.88
49515;BME280;35415;47.870;16.058;2023-02-22T08:40:33;97314.94;;;11.08;75.42
49515;BME280;35415;47.870;16.058;2023-02-22T08:43:01;97291.53;;;10.93;74.39
49515;BME280;35415;47.870;16.058;2023-02-22T08:45:29;97281.00;;;10.92;73.65
49515;BME280;35415;47.870;16.058;2023-02-22T08:48:06;97316.81;;;11.28;72.73
49515;BME280;35415;47.870;16.058;2023-02-22T08:50:35;97276.19;;;11.09;71.85
49515;BME280;35415;47.870;16.058;2023-02-22T08:53:08;97285.06;;;11.30;71.38
49515;BME280;35415;47.870;16.058;2023-02-22T08:55:39;97331.31;;;11.67;71.80
49515;BME280;35415;47.870;16.058;2023-02-22T08:58:12;97319.47;;;11.79;70.55
49515;BME280;35415;47.870;16.058;2023-02-22T09:00:39;97320.50;;;11.88;69.83
49515;BME280;35415;47.870;16.058;2023-02-22T09:03:10;97322.38;;;11.97;69.47
49515;BME280;35415;47.870;16.058;2023-02-22T09:05:39;97326.63;;;12.09;69.43
49515;BME280;35415;47.870;16.058;2023-02-22T09:08:08;97322.28;;;12.18;68.29
49515;BME280;35415;47.870;16.058;2023-02-22T09:10:36;97314.97;;;12.28;67.86
49515;BME280;35415;47.870;16.058;2023-02-22T09:13:03;97297.72;;;12.24;67.29
49515;BME280;35415;47.870;16.058;2023-02-22T09:15:31;97318.66;;;12.43;67.41
49515;BME280;35415;47.870;16.058;2023-02-22T09:18:00;97314.88;;;12.49;67.37
49515;BME280;35415;47.870;16.058;2023-02-22T09:20:29;97270.47;;;12.26;67.88
49515;BME280;35415;47.870;16.058;2023-02-22T09:22:57;97273.13;;;12.36;67.79
49515;BME280;35415;47.870;16.058;2023-02-22T09:25:30;97238.38;;;12.24;67.90
49515;BME280;35415;47.870;16.058;2023-02-22T09:28:00;97249.88;;;12.40;67.20
49515;BME280;35415;47.870;16.058;2023-02-22T09:30:30;97299.22;;;12.90;67.01
49515;BME280;35415;47.870;16.058;2023-02-22T09:32:59;97255.94;;;12.66;67.14
49515;BME280;35415;47.870;16.058;2023-02-22T09:35:26;97263.34;;;12.84;65.69
49515;BME280;35415;47.870;16.058;2023-02-22T09:37:55;97305.22;;;13.21;65.10
49515;BME280;35415;47.870;16.058;2023-02-22T09:40:23;97230.91;;;12.94;65.29
49515;BME280;35415;47.870;16.058;2023-02-22T09:43:14;97287.72;;;13.42;65.44
49515;BME280;35415;47.870;16.058;2023-02-22T09:45:53;97279.59;;;13.47;65.12
49515;BME280;35415;47.870;16.058;2023-02-22T09:48:28;97281.56;;;13.66;63.03
49515;BME280;35415;47.870;16.058;2023-02-22T09:50:58;97287.63;;;13.76;63.13
49515;BME280;35415;47.870;16.058;2023-02-22T09:53:29;97281.63;;;13.84;62.98
49515;BME280;35415;47.870;16.058;2023-02-22T09:56:04;97283.13;;;13.96;61.80
49515;BME280;35415;47.870;16.058;2023-02-22T09:58:38;97243.53;;;13.81;61.47
49515;BME280;35415;47.870;16.058;2023-02-22T10:01:20;97264.34;;;14.04;60.13
49515;BME280;35415;47.870;16.058;2023-02-22T10:03:57;97243.66;;;13.95;60.57
49515;BME280;35415;47.870;16.058;2023-02-22T10:06:26;97201.59;;;13.83;59.43
49515;BME280;35415;47.870;16.058;2023-02-22T10:08:59;97251.56;;;14.10;60.37
49515;BME280;35415;47.870;16.058;2023-02-22T10:11:51;97240.25;;;14.27;60.10
49515;BME280;35415;47.870;16.058;2023-02-22T10:14:50;97216.63;;;14.13;60.15
49515;BME280;35415;47.870;16.058;2023-02-22T10:17:27;97267.88;;;14.66;58.81
49515;BME280;35415;47.870;16.058;2023-02-22T10:20:18;97243.59;;;14.61;58.06
49515;BME280;35415;47.870;16.058;2023-02-22T10:22:59;97199.63;;;14.51;58.31
49515;BME280;35415;47.870;16.058;2023-02-22T10:25:33;97201.34;;;14.60;56.83
49515;BME280;35415;47.870;16.058;2023-02-22T10:28:10;97212.88;;;14.85;56.74
49515;BME280;35415;47.870;16.058;2023-02-22T10:30:42;97227.06;;;14.95;56.33
49515;BME280;35415;47.870;16.058;2023-02-22T10:33:14;97242.22;;;15.29;54.21
49515;BME280;35415;47.870;16.058;2023-02-22T10:35:43;97214.19;;;15.20;54.26
49515;BME280;35415;47.870;16.058;2023-02-22T10:38:16;97244.03;;;15.47;54.72
49515;BME280;35415;47.870;16.058;2023-02-22T10:40:48;97232.81;;;15.54;54.70
49515;BME280;35415;47.870;16.058;2023-02-22T10:43:17;97245.59;;;15.67;54.26
49515;BME280;35415;47.870;16.058;2023-02-22T10:45:46;97236.25;;;15.73;53.83
49515;BME280;35415;47.870;16.058;2023-02-22T10:48:15;97241.78;;;15.82;53.99
49515;BME280;35415;47.870;16.058;2023-02-22T10:50:45;97228.81;;;15.79;52.43
49515;BME280;35415;47.870;16.058;2023-02-22T10:53:13;97231.31;;;15.89;52.07
49515;BME280;35415;47.870;16.058;2023-02-22T10:56:05;97179.06;;;15.56;53.14
49515;BME280;35415;47.870;16.058;2023-02-22T10:58:40;97234.22;;;16.06;52.79
49515;BME280;35415;47.870;16.058;2023-02-22T11:01:23;97227.38;;;16.09;52.63
49515;BME280;35415;47.870;16.058;2023-02-22T11:03:58;97186.63;;;15.86;52.16
49515;BME280;35415;47.870;16.058;2023-02-22T11:06:28;97206.78;;;16.08;49.99
49515;BME280;35415;47.870;16.058;2023-02-22T11:09:09;97217.72;;;16.30;52.44
49515;BME280;35415;47.870;16.058;2023-02-22T11:11:42;97199.63;;;16.25;50.51
49515;BME280;35415;47.870;16.058;2023-02-22T11:14:25;97150.72;;;16.03;51.40
49515;BME280;35415;47.870;16.058;2023-02-22T11:16:59;97189.41;;;16.45;51.32
49515;BME280;35415;47.870;16.058;2023-02-22T11:19:30;97200.31;;;16.67;49.72
49515;BME280;35415;47.870;16.058;2023-02-22T11:22:09;97173.25;;;16.62;50.55
49515;BME280;35415;47.870;16.058;2023-02-22T11:24:43;97123.56;;;16.39;49.71
49515;BME280;35415;47.870;16.058;2023-02-22T11:27:23;97198.00;;;16.97;49.72
49515;BME280;35415;47.870;16.058;2023-02-22T11:29:54;97103.09;;;16.55;49.29
49515;BME280;35415;47.870;16.058;2023-02-22T11:32:25;97153.41;;;16.98;49.20
49515;BME280;35415;47.870;16.058;2023-02-22T11:34:52;97179.25;;;17.26;48.09
49515;BME280;35415;47.870;16.058;2023-02-22T11:37:39;97155.75;;;17.22;48.72
49515;BME280;35415;47.870;16.058;2023-02-22T11:40:13;97113.47;;;17.07;48.59
49515;BME280;35415;47.870;16.058;2023-02-22T11:42:47;97161.16;;;17.53;47.08
49515;BME280;35415;47.870;16.058;2023-02-22T11:45:19;97133.31;;;17.47;47.79
49515;BME280;35415;47.870;16.058;2023-02-22T11:48:05;97161.88;;;17.76;48.17
49515;BME280;35415;47.870;16.058;2023-02-22T11:50:38;97131.72;;;17.55;47.01
49515;BME280;35415;47.870;16.058;2023-02-22T11:53:22;97112.53;;;17.60;47.46
49515;BME280;35415;47.870;16.058;2023-02-22T11:56:10;97150.59;;;17.99;47.36
49515;BME280;35415;47.870;16.058;2023-02-22T11:59:20;97092.56;;;17.64;48.12
49515;BME280;35415;47.870;16.058;2023-02-22T12:01:55;97128.16;;;18.11;45.63
49515;BME280;35415;47.870;16.058;2023-02-22T12:07:35;97152.69;;;18.37;45.41
49515;BME280;35415;47.870;16.058;2023-02-22T12:10:19;97135.06;;;18.43;46.10
49515;BME280;35415;47.870;16.058;2023-02-22T12:13:04;97130.13;;;18.37;45.84
49515;BME280;35415;47.870;16.058;2023-02-22T12:15:38;97074.38;;;18.08;44.91
49515;BME280;35415;47.870;16.058;2023-02-22T12:18:20;97063.19;;;18.01;44.76
49515;BME280;35415;47.870;16.058;2023-02-22T12:20:56;97134.41;;;18.55;44.95
49515;BME280;35415;47.870;16.058;2023-02-22T12:23:29;97111.34;;;18.52;44.30
49515;BME280;35415;47.870;16.058;2023-02-22T12:26:00;97079.81;;;18.25;44.76
49515;BME280;35415;47.870;16.058;2023-02-22T12:28:33;97060.59;;;18.22;44.57
49515;BME280;35415;47.870;16.058;2023-02-22T12:31:15;97086.03;;;18.43;44.98
49515;BME280;35415;47.870;16.058;2023-02-22T12:33:53;97129.78;;;18.73;44.53
49515;BME280;35415;47.870;16.058;2023-02-22T12:36:46;97046.03;;;18.26;44.78
49515;BME280;35415;47.870;16.058;2023-02-22T12:39:45;97096.78;;;18.66;44.84
49515;BME280;35415;47.870;16.058;2023-02-22T12:42:18;97088.63;;;18.66;43.56
49515;BME280;35415;47.870;16.058;2023-02-22T12:44:53;97098.81;;;18.86;43.83
49515;BME280;35415;47.870;16.058;2023-02-22T12:47:29;97097.09;;;18.81;44.00
49515;BME280;35415;47.870;16.058;2023-02-22T12:50:05;97062.81;;;18.63;43.52
49515;BME280;35415;47.870;16.058;2023-02-22T12:52:49;97063.91;;;18.62;43.58
49515;BME280;35415;47.870;16.058;2023-02-22T12:55:22;97077.19;;;18.81;43.08
49515;BME280;35415;47.870;16.058;2023-02-22T12:57:55;97070.63;;;18.82;42.84
49515;BME280;35415;47.870;16.058;2023-02-22T13:00:32;97083.56;;;18.93;42.96
49515;BME280;35415;47.870;16.058;2023-02-22T13:03:04;97069.50;;;18.83;43.13
49515;BME280;35415;47.870;16.058;2023-02-22T13:05:39;97108.22;;;19.06;43.12
49515;BME280;35415;47.870;16.058;2023-02-22T13:08:18;97060.19;;;18.84;43.37
49515;BME280;35415;47.870;16.058;2023-02-22T13:11:09;97100.81;;;19.15;43.67
49515;BME280;35415;47.870;16.058;2023-02-22T13:13:48;97086.69;;;19.13;43.37
49515;BME280;35415;47.870;16.058;2023-02-22T13:16:32;97101.56;;;19.24;42.87
49515;BME280;35415;47.870;16.058;2023-02-22T13:19:10;97058.53;;;19.00;42.58
49515;BME280;35415;47.870;16.058;2023-02-22T13:21:46;97028.28;;;18.84;42.29
49515;BME280;35415;47.870;16.058;2023-02-22T13:24:23;97095.44;;;19.36;42.58
49515;BME280;35415;47.870;16.058;2023-02-22T13:26:59;97091.38;;;19.42;42.46
49515;BME280;35415;47.870;16.058;2023-02-22T13:29:32;97051.91;;;19.10;41.91